sensor_id;sensor_type;location;lat;lon;timestamp;temperature;humidity
3550;DHT22;45572;48.804;8.330;2023-09-19T00:00:37;17.60;96.80
3550;DHT22;45572;48.804;8.330;2023-09-19T00:03:06;17.70;96.80
3550;DHT22;45572;48.804;8.330;2023-09-19T00:05:37;17.70;96.80
3550;DHT22;45572;48.804;8.330;2023-09-19T00:08:06;17.70;96.70
3550;DHT22;45572;48.804;8.330;2023-09-19T00:10:34;17.70;96.60
3550;DHT22;45572;48.804;8.330;2023-09-19T00:13:03;17.80;94.20
3550;DHT22;45572;48.804;8.330;2023-09-19T00:15:39;17.90;93.20
3550;DHT22;45572;48.804;8.330;2023-09-19T00:18:07;18.00;93.00
3550;DHT22;45572;48.804;8.330;2023-09-19T00:20:38;18.10;92.20
3550;DHT22;45572;48.804;8.330;2023-09-19T00:23:06;18.20;92.20
3550;DHT22;45572;48.804;8.330;2023-09-19T00:25:35;18.20;91.80
3550;DHT22;45572;48.804;8.330;2023-09-19T00:28:04;18.30;91.80
3550;DHT22;45572;48.804;8.330;2023-09-19T00:30:34;18.30;91.70
3550;DHT22;45572;48.804;8.330;2023-09-19T00:33:02;18.30;91.80
3550;DHT22;45572;48.804;8.330;2023-09-19T00:35:33;18.40;91.20
3550;DHT22;45572;48.804;8.330;2023-09-19T00:38:03;18.50;90.80
3550;DHT22;45572;48.804;8.330;2023-09-19T00:40:31;18.50;90.60
3550;DHT22;45572;48.804;8.330;2023-09-19T00:42:59;18.50;91.20
3550;DHT22;45572;48.804;8.330;2023-09-19T00:45:28;18.50;90.80
3550;DHT22;45572;48.804;8.330;2023-09-19T00:47:56;18.50;90.80
3550;DHT22;45572;48.804;8.330;2023-09-19T00:50:26;18.50;90.00
3550;DHT22;45572;48.804;8.330;2023-09-19T00:52:55;18.50;90.10
3550;DHT22;45572;48.804;8.330;2023-09-19T00:55:25;18.50;90.40
3550;DHT22;45572;48.804;8.330;2023-09-19T00:57:56;18.60;89.70
3550;DHT22;45572;48.804;8.330;2023-09-19T01:00:25;18.60;89.90
3550;DHT22;45572;48.804;8.330;2023-09-19T01:02:54;18.60;89.20
3550;DHT22;45572;48.804;8.330;2023-09-19T01:05:22;18.60;89.40
3550;DHT22;45572;48.804;8.330;2023-09-19T01:07:52;18.60;89.40
3550;DHT22;45572;48.804;8.330;2023-09-19T01:10:21;18.60;89.00
3550;DHT22;45572;48.804;8.330;2023-09-19T01:12:55;18.60;89.20
3550;DHT22;45572;48.804;8.330;2023-09-19T01:15:37;18.50;89.70
3550;DHT22;45572;48.804;8.330;2023-09-19T01:18:14;18.50;89.40
3550;DHT22;45572;48.804;8.330;2023-09-19T01:20:53;18.50;89.40
3550;DHT22;45572;48.804;8.330;2023-09-19T01:23:27;18.50;89.50
3550;DHT22;45572;48.804;8.330;2023-09-19T01:26:06;18.60;88.60
3550;DHT22;45572;48.804;8.330;2023-09-19T01:28:47;18.60;88.50
3550;DHT22;45572;48.804;8.330;2023-09-19T01:31:23;18.70;89.00
3550;DHT22;45572;48.804;8.330;2023-09-19T01:33:54;18.70;88.80
3550;DHT22;45572;48.804;8.330;2023-09-19T01:36:28;18.70;88.80
3550;DHT22;45572;48.804;8.330;2023-09-19T01:38:57;18.80;88.80
3550;DHT22;45572;48.804;8.330;2023-09-19T01:41:33;18.80;88.70
3550;DHT22;45572;48.804;8.330;2023-09-19T01:44:06;18.80;88.00
3550;DHT22;45572;48.804;8.330;2023-09-19T01:46:40;18.90;88.00
3550;DHT22;45572;48.804;8.330;2023-09-19T01:49:18;18.90;88.40
3550;DHT22;45572;48.804;8.330;2023-09-19T01:51:56;18.90;88.20
3550;DHT22;45572;48.804;8.330;2023-09-19T01:54:32;18.90;88.00
3550;DHT22;45572;48.804;8.330;2023-09-19T01:57:09;18.90;87.90
3550;DHT22;45572;48.804;8.330;2023-09-19T01:59:43;19.00;87.90
3550;DHT22;45572;48.804;8.330;2023-09-19T02:02:14;19.00;87.70
3550;DHT22;45572;48.804;8.330;2023-09-19T02:04:43;19.00;87.70
3550;DHT22;45572;48.804;8.330;2023-09-19T02:07:12;19.00;88.20
3550;DHT22;45572;48.804;8.330;2023-09-19T02:09:43;19.00;88.30
3550;DHT22;45572;48.804;8.330;2023-09-19T02:12:11;19.00;87.80
3550;DHT22;45572;48.804;8.330;2023-09-19T02:14:40;19.00;88.10
3550;DHT22;45572;48.804;8.330;2023-09-19T02:17:08;19.00;87.90
3550;DHT22;45572;48.804;8.330;2023-09-19T02:19:39;19.10;88.10
3550;DHT22;45572;48.804;8.330;2023-09-19T02:22:07;19.10;87.20
3550;DHT22;45572;48.804;8.330;2023-09-19T02:24:37;19.00;87.40
3550;DHT22;45572;48.804;8.330;2023-09-19T02:27:05;19.00;87.50
3550;DHT22;45572;48.804;8.330;2023-09-19T02:29:34;19.10;87.30
3550;DHT22;45572;48.804;8.330;2023-09-19T02:32:02;19.10;87.60
3550;DHT22;45572;48.804;8.330;2023-09-19T02:34:31;19.10;87.30
3550;DHT22;45572;48.804;8.330;2023-09-19T02:37:00;19.20;87.40
3550;DHT22;45572;48.804;8.330;2023-09-19T02:39:28;19.20;87.80
3550;DHT22;45572;48.804;8.330;2023-09-19T02:41:56;19.30;87.80
3550;DHT22;45572;48.804;8.330;2023-09-19T02:44:24;19.20;87.60
3550;DHT22;45572;48.804;8.330;2023-09-19T02:46:52;19.30;87.90
3550;DHT22;45572;48.804;8.330;2023-09-19T02:49:21;19.40;87.80
3550;DHT22;45572;48.804;8.330;2023-09-19T02:51:50;19.30;87.50
3550;DHT22;45572;48.804;8.330;2023-09-19T02:54:19;19.20;87.80
3550;DHT22;45572;48.804;8.330;2023-09-19T02:56:48;19.20;88.20
3550;DHT22;45572;48.804;8.330;2023-09-19T02:59:16;19.10;88.10
3550;DHT22;45572;48.804;8.330;2023-09-19T03:01:46;19.10;88.40
3550;DHT22;45572;48.804;8.330;2023-09-19T03:04:14;19.00;88.60
3550;DHT22;45572;48.804;8.330;2023-09-19T03:06:47;19.00;88.70
3550;DHT22;45572;48.804;8.330;2023-09-19T03:09:19;19.00;88.70
3550;DHT22;45572;48.804;8.330;2023-09-19T03:11:47;18.90;88.60
3550;DHT22;45572;48.804;8.330;2023-09-19T03:14:14;18.90;88.60
3550;DHT22;45572;48.804;8.330;2023-09-19T03:16:43;18.90;88.80
3550;DHT22;45572;48.804;8.330;2023-09-19T03:19:12;18.90;89.10
3550;DHT22;45572;48.804;8.330;2023-09-19T03:21:42;18.90;89.50
3550;DHT22;45572;48.804;8.330;2023-09-19T03:24:10;18.80;89.60
3550;DHT22;45572;48.804;8.330;2023-09-19T03:26:40;18.70;90.00
3550;DHT22;45572;48.804;8.330;2023-09-19T03:29:07;18.70;90.30
3550;DHT22;45572;48.804;8.330;2023-09-19T03:31:37;18.70;90.80
3550;DHT22;45572;48.804;8.330;2023-09-19T03:34:07;18.60;91.30
3550;DHT22;45572;48.804;8.330;2023-09-19T03:36:36;18.50;91.60
3550;DHT22;45572;48.804;8.330;2023-09-19T03:39:04;18.50;91.70
3550;DHT22;45572;48.804;8.330;2023-09-19T03:41:32;18.40;92.00
3550;DHT22;45572;48.804;8.330;2023-09-19T03:44:04;18.50;92.00
3550;DHT22;45572;48.804;8.330;2023-09-19T03:46:33;18.40;92.60
3550;DHT22;45572;48.804;8.330;2023-09-19T03:49:02;18.40;93.50
3550;DHT22;45572;48.804;8.330;2023-09-19T03:51:30;18.30;94.20
3550;DHT22;45572;48.804;8.330;2023-09-19T03:53:58;18.20;94.20
3550;DHT22;45572;48.804;8.330;2023-09-19T03:56:26;18.00;95.00
3550;DHT22;45572;48.804;8.330;2023-09-19T03:58:55;18.00;95.60
3550;DHT22;45572;48.804;8.330;2023-09-19T04:01:24;18.00;96.10
3550;DHT22;45572;48.804;8.330;2023-09-19T04:03:54;17.80;96.60
3550;DHT22;45572;48.804;8.330;2023-09-19T04:06:23;17.60;96.80
3550;DHT22;45572;48.804;8.330;2023-09-19T04:08:51;17.70;96.80
3550;DHT22;45572;48.804;8.330;2023-09-19T04:11:19;17.70;96.80
3550;DHT22;45572;48.804;8.330;2023-09-19T04:13:47;17.60;96.80
3550;DHT22;45572;48.804;8.330;2023-09-19T04:16:15;17.50;96.80
3550;DHT22;45572;48.804;8.330;2023-09-19T04:18:46;17.50;96.80
3550;DHT22;45572;48.804;8.330;2023-09-19T04:21:14;17.30;96.80
3550;DHT22;45572;48.804;8.330;2023-09-19T04:23:42;17.10;96.80
3550;DHT22;45572;48.804;8.330;2023-09-19T04:26:10;17.20;96.80
3550;DHT22;45572;48.804;8.330;2023-09-19T04:28:38;17.10;96.80
3550;DHT22;45572;48.804;8.330;2023-09-19T04:31:07;17.10;96.80
3550;DHT22;45572;48.804;8.330;2023-09-19T04:33:37;17.10;96.80
3550;DHT22;45572;48.804;8.330;2023-09-19T04:36:07;17.00;96.80
3550;DHT22;45572;48.804;8.330;2023-09-19T04:38:54;17.00;96.80
3550;DHT22;45572;48.804;8.330;2023-09-19T04:41:22;17.00;96.80
3550;DHT22;45572;48.804;8.330;2023-09-19T04:43:51;17.00;96.80
3550;DHT22;45572;48.804;8.330;2023-09-19T04:46:18;17.10;96.80
3550;DHT22;45572;48.804;8.330;2023-09-19T04:48:47;17.00;96.80
3550;DHT22;45572;48.804;8.330;2023-09-19T04:51:16;17.00;96.80
3550;DHT22;45572;48.804;8.330;2023-09-19T04:53:45;17.00;96.80
3550;DHT22;45572;48.804;8.330;2023-09-19T04:56:14;17.00;96.80
3550;DHT22;45572;48.804;8.330;2023-09-19T04:58:43;17.10;96.80
3550;DHT22;45572;48.804;8.330;2023-09-19T05:01:11;17.10;96.80
3550;DHT22;45572;48.804;8.330;2023-09-19T05:03:41;17.30;96.80
3550;DHT22;45572;48.804;8.330;2023-09-19T05:06:09;17.30;96.80
3550;DHT22;45572;48.804;8.330;2023-09-19T05:08:38;17.30;96.80
3550;DHT22;45572;48.804;8.330;2023-09-19T05:11:06;17.30;96.80
3550;DHT22;45572;48.804;8.330;2023-09-19T05:13:35;17.30;96.80
3550;DHT22;45572;48.804;8.330;2023-09-19T05:16:03;17.30;96.80
3550;DHT22;45572;48.804;8.330;2023-09-19T05:18:31;17.20;96.80
3550;DHT22;45572;48.804;8.330;2023-09-19T05:21:02;17.20;96.80
3550;DHT22;45572;48.804;8.330;2023-09-19T05:23:30;17.20;96.80
3550;DHT22;45572;48.804;8.330;2023-09-19T05:25:59;17.20;96.80
3550;DHT22;45572;48.804;8.330;2023-09-19T05:28:27;17.20;96.80
3550;DHT22;45572;48.804;8.330;2023-09-19T05:30:56;17.20;96.80
3550;DHT22;45572;48.804;8.330;2023-09-19T05:33:24;17.30;96.80
3550;DHT22;45572;48.804;8.330;2023-09-19T05:35:54;17.20;96.60
3550;DHT22;45572;48.804;8.330;2023-09-19T05:38:22;17.20;96.20
3550;DHT22;45572;48.804;8.330;2023-09-19T05:40:51;17.20;95.90
3550;DHT22;45572;48.804;8.330;2023-09-19T05:43:21;17.20;96.00
3550;DHT22;45572;48.804;8.330;2023-09-19T05:45:49;17.20;95.60
3550;DHT22;45572;48.804;8.330;2023-09-19T05:48:18;17.20;95.90
3550;DHT22;45572;48.804;8.330;2023-09-19T05:50:48;17.20;95.60
3550;DHT22;45572;48.804;8.330;2023-09-19T05:53:16;17.30;95.60
3550;DHT22;45572;48.804;8.330;2023-09-19T05:55:45;17.20;94.90
3550;DHT22;45572;48.804;8.330;2023-09-19T05:58:13;17.40;95.20
3550;DHT22;45572;48.804;8.330;2023-09-19T06:00:42;17.30;94.40
3550;DHT22;45572;48.804;8.330;2023-09-19T06:03:11;17.30;94.40
3550;DHT22;45572;48.804;8.330;2023-09-19T06:05:40;17.40;94.30
3550;DHT22;45572;48.804;8.330;2023-09-19T06:08:08;17.40;94.40
3550;DHT22;45572;48.804;8.330;2023-09-19T06:10:36;17.30;94.30
3550;DHT22;45572;48.804;8.330;2023-09-19T06:13:04;17.30;94.60
3550;DHT22;45572;48.804;8.330;2023-09-19T06:15:33;17.40;94.90
3550;DHT22;45572;48.804;8.330;2023-09-19T06:18:04;17.60;95.10
3550;DHT22;45572;48.804;8.330;2023-09-19T06:20:32;17.80;95.10
3550;DHT22;45572;48.804;8.330;2023-09-19T06:23:00;17.90;94.00
3550;DHT22;45572;48.804;8.330;2023-09-19T06:25:30;17.90;93.80
3550;DHT22;45572;48.804;8.330;2023-09-19T06:27:58;17.80;93.40
3550;DHT22;45572;48.804;8.330;2023-09-19T06:30:26;17.90;94.00
3550;DHT22;45572;48.804;8.330;2023-09-19T06:32:56;17.90;94.00
3550;DHT22;45572;48.804;8.330;2023-09-19T06:35:26;18.00;93.80
3550;DHT22;45572;48.804;8.330;2023-09-19T06:37:55;18.10;93.80
3550;DHT22;45572;48.804;8.330;2023-09-19T06:40:24;18.00;93.30
3550;DHT22;45572;48.804;8.330;2023-09-19T06:42:53;18.00;93.10
3550;DHT22;45572;48.804;8.330;2023-09-19T06:45:23;18.10;93.40
3550;DHT22;45572;48.804;8.330;2023-09-19T06:47:53;18.20;93.50
3550;DHT22;45572;48.804;8.330;2023-09-19T06:50:27;18.30;93.60
3550;DHT22;45572;48.804;8.330;2023-09-19T06:52:58;18.50;93.40
3550;DHT22;45572;48.804;8.330;2023-09-19T06:55:27;18.20;92.20
3550;DHT22;45572;48.804;8.330;2023-09-19T06:57:59;18.20;92.70
3550;DHT22;45572;48.804;8.330;2023-09-19T07:00:27;18.20;92.70
3550;DHT22;45572;48.804;8.330;2023-09-19T07:03:01;18.40;93.30
3550;DHT22;45572;48.804;8.330;2023-09-19T07:05:34;18.50;92.70
3550;DHT22;45572;48.804;8.330;2023-09-19T07:08:06;18.70;92.90
3550;DHT22;45572;48.804;8.330;2023-09-19T07:10:34;18.80;93.10
3550;DHT22;45572;48.804;8.330;2023-09-19T07:13:03;18.90;92.40
3550;DHT22;45572;48.804;8.330;2023-09-19T07:15:33;19.10;92.20
3550;DHT22;45572;48.804;8.330;2023-09-19T07:18:02;19.20;92.20
3550;DHT22;45572;48.804;8.330;2023-09-19T07:20:34;19.10;91.20
3550;DHT22;45572;48.804;8.330;2023-09-19T07:23:02;19.00;91.80
3550;DHT22;45572;48.804;8.330;2023-09-19T07:25:31;18.60;91.40
3550;DHT22;45572;48.804;8.330;2023-09-19T07:28:02;18.60;91.80
3550;DHT22;45572;48.804;8.330;2023-09-19T07:30:30;18.50;91.30
3550;DHT22;45572;48.804;8.330;2023-09-19T07:32:58;18.80;91.20
3550;DHT22;45572;48.804;8.330;2023-09-19T07:35:26;19.30;90.70
3550;DHT22;45572;48.804;8.330;2023-09-19T07:37:55;20.00;87.80
3550;DHT22;45572;48.804;8.330;2023-09-19T07:40:24;20.80;86.50
3550;DHT22;45572;48.804;8.330;2023-09-19T07:42:53;22.00;84.40
3550;DHT22;45572;48.804;8.330;2023-09-19T07:45:21;23.10;81.80
3550;DHT22;45572;48.804;8.330;2023-09-19T07:47:50;24.80;78.30
3550;DHT22;45572;48.804;8.330;2023-09-19T07:50:19;24.30;75.50
3550;DHT22;45572;48.804;8.330;2023-09-19T07:52:47;23.20;77.10
3550;DHT22;45572;48.804;8.330;2023-09-19T07:55:19;22.90;78.70
3550;DHT22;45572;48.804;8.330;2023-09-19T07:57:50;23.40;78.50
3550;DHT22;45572;48.804;8.330;2023-09-19T08:00:18;23.50;78.20
3550;DHT22;45572;48.804;8.330;2023-09-19T08:02:46;23.60;78.60
3550;DHT22;45572;48.804;8.330;2023-09-19T08:05:24;23.50;77.10
3550;DHT22;45572;48.804;8.330;2023-09-19T08:07:53;23.80;78.20
3550;DHT22;45572;48.804;8.330;2023-09-19T08:10:25;24.60;75.50
3550;DHT22;45572;48.804;8.330;2023-09-19T08:12:54;24.90;71.50
3550;DHT22;45572;48.804;8.330;2023-09-19T08:15:24;24.60;72.20
3550;DHT22;45572;48.804;8.330;2023-09-19T08:17:53;25.00;71.30
3550;DHT22;45572;48.804;8.330;2023-09-19T08:20:21;25.30;70.50
3550;DHT22;45572;48.804;8.330;2023-09-19T08:22:50;25.70;71.30
3550;DHT22;45572;48.804;8.330;2023-09-19T08:25:21;26.30;68.20
3550;DHT22;45572;48.804;8.330;2023-09-19T08:27:51;27.30;67.90
3550;DHT22;45572;48.804;8.330;2023-09-19T08:30:20;28.20;63.70
3550;DHT22;45572;48.804;8.330;2023-09-19T08:32:51;28.80;61.60
3550;DHT22;45572;48.804;8.330;2023-09-19T08:35:19;28.60;62.60
3550;DHT22;45572;48.804;8.330;2023-09-19T08:37:47;27.40;63.90
3550;DHT22;45572;48.804;8.330;2023-09-19T08:40:15;25.20;68.10
3550;DHT22;45572;48.804;8.330;2023-09-19T08:42:52;25.10;71.90
3550;DHT22;45572;48.804;8.330;2023-09-19T08:45:21;24.10;71.10
3550;DHT22;45572;48.804;8.330;2023-09-19T08:48:03;23.60;72.50
3550;DHT22;45572;48.804;8.330;2023-09-19T08:50:37;22.60;74.40
3550;DHT22;45572;48.804;8.330;2023-09-19T08:53:11;22.80;76.30
3550;DHT22;45572;48.804;8.330;2023-09-19T08:55:43;24.00;74.80
3550;DHT22;45572;48.804;8.330;2023-09-19T08:58:17;24.60;70.70
3550;DHT22;45572;48.804;8.330;2023-09-19T09:00:51;24.30;71.30
3550;DHT22;45572;48.804;8.330;2023-09-19T09:03:20;24.30;71.00
3550;DHT22;45572;48.804;8.330;2023-09-19T09:05:50;23.90;72.50
3550;DHT22;45572;48.804;8.330;2023-09-19T09:08:19;22.90;73.10
3550;DHT22;45572;48.804;8.330;2023-09-19T09:10:47;22.70;75.30
3550;DHT22;45572;48.804;8.330;2023-09-19T09:13:16;23.30;75.10
3550;DHT22;45572;48.804;8.330;2023-09-19T09:15:46;23.20;74.50
3550;DHT22;45572;48.804;8.330;2023-09-19T09:18:14;23.00;73.00
3550;DHT22;45572;48.804;8.330;2023-09-19T09:20:43;22.40;74.50
3550;DHT22;45572;48.804;8.330;2023-09-19T09:23:12;22.10;75.90
3550;DHT22;45572;48.804;8.330;2023-09-19T09:25:49;22.20;76.80
3550;DHT22;45572;48.804;8.330;2023-09-19T09:28:24;22.70;77.30
3550;DHT22;45572;48.804;8.330;2023-09-19T09:30:54;22.70;76.30
3550;DHT22;45572;48.804;8.330;2023-09-19T09:33:23;22.70;76.10
3550;DHT22;45572;48.804;8.330;2023-09-19T09:35:53;22.50;75.80
3550;DHT22;45572;48.804;8.330;2023-09-19T09:38:24;22.60;75.50
3550;DHT22;45572;48.804;8.330;2023-09-19T09:40:55;22.50;76.50
3550;DHT22;45572;48.804;8.330;2023-09-19T09:43:32;22.50;76.10
3550;DHT22;45572;48.804;8.330;2023-09-19T09:46:12;22.10;77.00
3550;DHT22;45572;48.804;8.330;2023-09-19T09:48:57;22.30;76.60
3550;DHT22;45572;48.804;8.330;2023-09-19T09:51:39;22.40;77.80
3550;DHT22;45572;48.804;8.330;2023-09-19T09:54:10;22.50;77.80
3550;DHT22;45572;48.804;8.330;2023-09-19T09:56:56;22.10;74.20
3550;DHT22;45572;48.804;8.330;2023-09-19T09:59:47;22.00;75.50
3550;DHT22;45572;48.804;8.330;2023-09-19T10:02:17;21.80;74.90
3550;DHT22;45572;48.804;8.330;2023-09-19T10:04:52;21.90;75.30
3550;DHT22;45572;48.804;8.330;2023-09-19T10:07:28;22.30;76.00
3550;DHT22;45572;48.804;8.330;2023-09-19T10:10:00;22.50;72.50
3550;DHT22;45572;48.804;8.330;2023-09-19T10:12:43;22.70;72.80
3550;DHT22;45572;48.804;8.330;2023-09-19T10:15:15;22.90;71.80
3550;DHT22;45572;48.804;8.330;2023-09-19T10:17:45;23.00;71.60
3550;DHT22;45572;48.804;8.330;2023-09-19T10:20:15;23.70;69.00
3550;DHT22;45572;48.804;8.330;2023-09-19T10:22:55;23.20;68.60
3550;DHT22;45572;48.804;8.330;2023-09-19T10:25:26;22.70;70.30
3550;DHT22;45572;48.804;8.330;2023-09-19T10:27:56;22.50;71.00
3550;DHT22;45572;48.804;8.330;2023-09-19T10:30:29;22.50;70.70
3550;DHT22;45572;48.804;8.330;2023-09-19T10:33:01;23.00;71.50
3550;DHT22;45572;48.804;8.330;2023-09-19T10:35:30;23.50;68.30
3550;DHT22;45572;48.804;8.330;2023-09-19T10:38:00;23.80;68.30
3550;DHT22;45572;48.804;8.330;2023-09-19T10:40:30;23.40;65.70
3550;DHT22;45572;48.804;8.330;2023-09-19T10:43:01;23.20;69.20
3550;DHT22;45572;48.804;8.330;2023-09-19T10:45:34;23.90;70.40
3550;DHT22;45572;48.804;8.330;2023-09-19T10:48:03;24.70;64.50
3550;DHT22;45572;48.804;8.330;2023-09-19T10:50:35;25.20;62.40
3550;DHT22;45572;48.804;8.330;2023-09-19T10:53:05;24.70;63.30
3550;DHT22;45572;48.804;8.330;2023-09-19T10:55:36;24.40;63.90
3550;DHT22;45572;48.804;8.330;2023-09-19T10:58:06;23.70;65.60
3550;DHT22;45572;48.804;8.330;2023-09-19T11:00:57;23.90;64.90
3550;DHT22;45572;48.804;8.330;2023-09-19T11:03:32;24.50;63.90
3550;DHT22;45572;48.804;8.330;2023-09-19T11:06:03;25.00;62.80
3550;DHT22;45572;48.804;8.330;2023-09-19T11:08:52;25.60;59.70
3550;DHT22;45572;48.804;8.330;2023-09-19T11:11:39;25.80;59.60
3550;DHT22;45572;48.804;8.330;2023-09-19T11:14:16;25.50;59.00
3550;DHT22;45572;48.804;8.330;2023-09-19T11:25:54;24.20;63.20
3550;DHT22;45572;48.804;8.330;2023-09-19T11:28:31;25.30;61.30
3550;DHT22;45572;48.804;8.330;2023-09-19T11:37:00;26.70;60.30
3550;DHT22;45572;48.804;8.330;2023-09-19T11:39:31;26.80;60.20
3550;DHT22;45572;48.804;8.330;2023-09-19T11:42:01;27.60;59.20
3550;DHT22;45572;48.804;8.330;2023-09-19T11:44:50;28.00;57.20
3550;DHT22;45572;48.804;8.330;2023-09-19T11:47:22;28.00;55.30
3550;DHT22;45572;48.804;8.330;2023-09-19T11:49:52;27.50;57.60
3550;DHT22;45572;48.804;8.330;2023-09-19T11:52:21;27.80;57.90
3550;DHT22;45572;48.804;8.330;2023-09-19T11:54:54;28.10;58.00
3550;DHT22;45572;48.804;8.330;2023-09-19T11:57:27;28.80;54.60
3550;DHT22;45572;48.804;8.330;2023-09-19T11:59:57;28.10;56.10
3550;DHT22;45572;48.804;8.330;2023-09-19T12:02:34;27.20;56.60
3550;DHT22;45572;48.804;8.330;2023-09-19T12:05:06;26.90;58.60
3550;DHT22;45572;48.804;8.330;2023-09-19T12:07:43;26.80;59.20
3550;DHT22;45572;48.804;8.330;2023-09-19T12:10:14;26.70;61.10
3550;DHT22;45572;48.804;8.330;2023-09-19T12:12:48;26.40;59.90
3550;DHT22;45572;48.804;8.330;2023-09-19T12:15:22;26.10;60.70
3550;DHT22;45572;48.804;8.330;2023-09-19T12:17:55;25.80;61.00
3550;DHT22;45572;48.804;8.330;2023-09-19T12:20:23;25.70;63.50
3550;DHT22;45572;48.804;8.330;2023-09-19T12:22:53;25.70;59.10
3550;DHT22;45572;48.804;8.330;2023-09-19T12:25:21;25.40;60.30
3550;DHT22;45572;48.804;8.330;2023-09-19T12:27:53;25.30;59.00
3550;DHT22;45572;48.804;8.330;2023-09-19T12:30:28;25.10;59.40
3550;DHT22;45572;48.804;8.330;2023-09-19T12:33:00;24.90;58.50
3550;DHT22;45572;48.804;8.330;2023-09-19T12:35:31;24.60;61.00
3550;DHT22;45572;48.804;8.330;2023-09-19T12:38:01;24.70;60.60
3550;DHT22;45572;48.804;8.330;2023-09-19T12:40:30;24.80;61.30
3550;DHT22;45572;48.804;8.330;2023-09-19T12:43:01;24.90;61.80
3550;DHT22;45572;48.804;8.330;2023-09-19T12:45:31;25.10;59.70
3550;DHT22;45572;48.804;8.330;2023-09-19T12:48:19;25.10;60.80
3550;DHT22;45572;48.804;8.330;2023-09-19T12:51:04;25.30;61.20
3550;DHT22;45572;48.804;8.330;2023-09-19T12:53:37;25.20;59.20
3550;DHT22;45572;48.804;8.330;2023-09-19T12:56:10;25.10;59.70
3550;DHT22;45572;48.804;8.330;2023-09-19T12:58:51;25.10;60.10
3550;DHT22;45572;48.804;8.330;2023-09-19T13:01:22;24.90;59.30
3550;DHT22;45572;48.804;8.330;2023-09-19T13:04:13;24.90;59.40
3550;DHT22;45572;48.804;8.330;2023-09-19T13:06:46;24.90;59.60
3550;DHT22;45572;48.804;8.330;2023-09-19T13:09:16;25.00;61.60
3550;DHT22;45572;48.804;8.330;2023-09-19T13:11:44;25.10;59.20
3550;DHT22;45572;48.804;8.330;2023-09-19T13:14:17;24.90;60.80
3550;DHT22;45572;48.804;8.330;2023-09-19T13:16:54;24.90;59.50
3550;DHT22;45572;48.804;8.330;2023-09-19T13:19:39;25.10;60.20
3550;DHT22;45572;48.804;8.330;2023-09-19T13:22:38;24.90;58.60
3550;DHT22;45572;48.804;8.330;2023-09-19T13:25:07;24.90;60.20
3550;DHT22;45572;48.804;8.330;2023-09-19T13:27:41;25.10;60.20
3550;DHT22;45572;48.804;8.330;2023-09-19T13:30:13;25.00;57.60
3550;DHT22;45572;48.804;8.330;2023-09-19T13:32:42;25.00;59.10
3550;DHT22;45572;48.804;8.330;2023-09-19T13:35:10;25.00;58.50
3550;DHT22;45572;48.804;8.330;2023-09-19T13:37:39;25.00;58.30
3550;DHT22;45572;48.804;8.330;2023-09-19T13:40:11;24.90;59.20
3550;DHT22;45572;48.804;8.330;2023-09-19T13:42:41;24.90;59.60
3550;DHT22;45572;48.804;8.330;2023-09-19T13:45:09;24.80;59.60
3550;DHT22;45572;48.804;8.330;2023-09-19T13:47:41;24.70;59.40
3550;DHT22;45572;48.804;8.330;2023-09-19T13:50:10;24.60;58.80
3550;DHT22;45572;48.804;8.330;2023-09-19T13:52:41;24.50;60.20
3550;DHT22;45572;48.804;8.330;2023-09-19T13:55:09;24.60;60.10
3550;DHT22;45572;48.804;8.330;2023-09-19T13:57:37;24.60;60.00
3550;DHT22;45572;48.804;8.330;2023-09-19T14:00:06;24.70;59.80
3550;DHT22;45572;48.804;8.330;2023-09-19T14:02:41;24.70;59.40
3550;DHT22;45572;48.804;8.330;2023-09-19T14:05:13;24.70;60.50
3550;DHT22;45572;48.804;8.330;2023-09-19T14:07:42;24.80;60.40
3550;DHT22;45572;48.804;8.330;2023-09-19T14:10:10;24.80;59.10
3550;DHT22;45572;48.804;8.330;2023-09-19T14:12:39;24.50;59.40
3550;DHT22;45572;48.804;8.330;2023-09-19T14:15:08;24.70;61.20
3550;DHT22;45572;48.804;8.330;2023-09-19T14:17:37;24.60;59.60
3550;DHT22;45572;48.804;8.330;2023-09-19T14:20:08;24.70;60.40
3550;DHT22;45572;48.804;8.330;2023-09-19T14:22:41;24.70;60.80
3550;DHT22;45572;48.804;8.330;2023-09-19T14:25:08;24.80;60.90
3550;DHT22;45572;48.804;8.330;2023-09-19T14:27:37;24.80;60.00
3550;DHT22;45572;48.804;8.330;2023-09-19T14:30:07;24.60;60.90
3550;DHT22;45572;48.804;8.330;2023-09-19T14:32:36;24.40;59.50
3550;DHT22;45572;48.804;8.330;2023-09-19T14:35:06;24.40;61.20
3550;DHT22;45572;48.804;8.330;2023-09-19T14:37:36;24.50;61.40
3550;DHT22;45572;48.804;8.330;2023-09-19T14:40:05;24.40;60.80
3550;DHT22;45572;48.804;8.330;2023-09-19T14:42:38;24.50;61.10
3550;DHT22;45572;48.804;8.330;2023-09-19T14:45:07;24.60;60.00
3550;DHT22;45572;48.804;8.330;2023-09-19T14:47:36;24.60;61.40
3550;DHT22;45572;48.804;8.330;2023-09-19T14:50:05;24.50;60.90
3550;DHT22;45572;48.804;8.330;2023-09-19T14:52:35;24.50;61.80
3550;DHT22;45572;48.804;8.330;2023-09-19T14:55:06;24.50;63.40
3550;DHT22;45572;48.804;8.330;2023-09-19T14:57:36;24.30;61.30
3550;DHT22;45572;48.804;8.330;2023-09-19T15:00:07;24.20;63.10
3550;DHT22;45572;48.804;8.330;2023-09-19T15:02:39;24.10;62.60
3550;DHT22;45572;48.804;8.330;2023-09-19T15:05:08;24.00;61.90
3550;DHT22;45572;48.804;8.330;2023-09-19T15:07:39;24.00;61.60
3550;DHT22;45572;48.804;8.330;2023-09-19T15:10:08;24.00;63.10
3550;DHT22;45572;48.804;8.330;2023-09-19T15:12:36;24.10;63.80
3550;DHT22;45572;48.804;8.330;2023-09-19T15:15:05;24.00;62.90
3550;DHT22;45572;48.804;8.330;2023-09-19T15:17:34;24.00;63.20
3550;DHT22;45572;48.804;8.330;2023-09-19T15:20:03;24.00;63.30
3550;DHT22;45572;48.804;8.330;2023-09-19T15:22:33;24.00;62.50
3550;DHT22;45572;48.804;8.330;2023-09-19T15:25:03;24.10;63.10
3550;DHT22;45572;48.804;8.330;2023-09-19T15:27:32;24.20;62.90
3550;DHT22;45572;48.804;8.330;2023-09-19T15:30:01;24.20;63.80
3550;DHT22;45572;48.804;8.330;2023-09-19T15:32:32;24.30;63.60
3550;DHT22;45572;48.804;8.330;2023-09-19T15:35:00;24.40;63.50
3550;DHT22;45572;48.804;8.330;2023-09-19T15:37:31;24.40;63.10
3550;DHT22;45572;48.804;8.330;2023-09-19T15:39:59;24.40;63.60
3550;DHT22;45572;48.804;8.330;2023-09-19T15:42:30;24.50;63.70
3550;DHT22;45572;48.804;8.330;2023-09-19T15:44:58;24.50;64.10
3550;DHT22;45572;48.804;8.330;2023-09-19T15:47:26;24.50;64.40
3550;DHT22;45572;48.804;8.330;2023-09-19T15:49:56;24.20;63.40
3550;DHT22;45572;48.804;8.330;2023-09-19T15:52:24;24.10;64.20
3550;DHT22;45572;48.804;8.330;2023-09-19T15:54:52;24.10;65.00
3550;DHT22;45572;48.804;8.330;2023-09-19T15:57:21;24.00;65.20
3550;DHT22;45572;48.804;8.330;2023-09-19T15:59:52;24.00;65.50
3550;DHT22;45572;48.804;8.330;2023-09-19T16:02:23;24.00;64.30
3550;DHT22;45572;48.804;8.330;2023-09-19T16:04:54;23.80;64.00
3550;DHT22;45572;48.804;8.330;2023-09-19T16:07:22;23.60;64.20
3550;DHT22;45572;48.804;8.330;2023-09-19T16:09:50;23.50;64.70
3550;DHT22;45572;48.804;8.330;2023-09-19T16:12:19;23.50;64.90
3550;DHT22;45572;48.804;8.330;2023-09-19T16:14:47;23.40;64.70
3550;DHT22;45572;48.804;8.330;2023-09-19T16:17:18;23.40;65.80
3550;DHT22;45572;48.804;8.330;2023-09-19T16:19:46;23.40;66.00
3550;DHT22;45572;48.804;8.330;2023-09-19T16:22:14;23.40;67.00